createdAt,value
2023-01-15T00:01:03.085Z,9.50
2023-01-15T00:03:30.123Z,9.60
2023-01-15T00:05:56.836Z,9.60
2023-01-15T00:08:23.490Z,9.60
2023-01-15T00:10:50.175Z,9.60
2023-01-15T00:13:16.880Z,9.60
2023-01-15T00:15:43.662Z,9.60
2023-01-15T00:18:10.459Z,9.70
2023-01-15T00:20:37.087Z,9.70
2023-01-15T00:23:03.749Z,9.60
2023-01-15T00:25:49.193Z,9.70
2023-01-15T00:28:15.880Z,9.70
2023-01-15T00:30:46.156Z,9.70
2023-01-15T00:33:12.804Z,9.70
2023-01-15T00:35:39.743Z,9.80
2023-01-15T00:38:07.174Z,9.70
2023-01-15T00:40:34.201Z,9.70
2023-01-15T00:43:00.916Z,9.70
2023-01-15T00:45:28.216Z,9.70
2023-01-15T00:47:54.952Z,9.70
2023-01-15T00:50:21.692Z,9.80
2023-01-15T00:52:48.389Z,9.80
2023-01-15T00:55:15.051Z,9.80
2023-01-15T00:57:41.821Z,9.90
2023-01-15T01:00:09.038Z,9.80
2023-01-15T01:02:35.775Z,9.80
2023-01-15T01:05:02.574Z,9.80
2023-01-15T01:07:30.121Z,9.80
2023-01-15T01:09:56.881Z,9.90
2023-01-15T01:12:24.033Z,9.80
2023-01-15T01:14:50.921Z,9.90
2023-01-15T01:17:17.849Z,9.90
2023-01-15T01:19:44.830Z,9.80
2023-01-15T01:22:11.650Z,9.80
2023-01-15T01:24:38.614Z,9.80
2023-01-15T01:27:06.911Z,9.80
2023-01-15T01:29:33.776Z,9.80
2023-01-15T01:32:00.534Z,9.80
2023-01-15T01:34:27.487Z,9.80
2023-01-15T01:36:54.587Z,9.80
2023-01-15T01:39:21.486Z,9.90
2023-01-15T01:41:49.180Z,9.90
2023-01-15T01:44:37.351Z,9.90
2023-01-15T01:47:09.033Z,9.80
2023-01-15T01:49:37.953Z,9.90
2023-01-15T01:52:08.956Z,9.80
2023-01-15T01:54:36.700Z,9.90
2023-01-15T01:57:05.353Z,9.90
2023-01-15T01:59:32.699Z,9.80
2023-01-15T02:02:00.306Z,9.70
2023-01-15T02:04:29.109Z,9.60
2023-01-15T02:06:56.741Z,9.50
2023-01-15T02:09:24.969Z,9.40
2023-01-15T02:11:55.919Z,9.40
2023-01-15T02:14:30.546Z,9.30
2023-01-15T02:17:01.372Z,9.30
2023-01-15T02:19:47.079Z,9.30
2023-01-15T02:22:32.316Z,9.20
2023-01-15T02:25:18.416Z,9.20
2023-01-15T02:27:55.247Z,9.20
2023-01-15T02:30:27.523Z,9.10
2023-01-15T02:33:00.358Z,9.20
2023-01-15T02:35:54.393Z,9.10
2023-01-15T02:38:24.419Z,9.10
2023-01-15T02:40:56.239Z,9.00
2023-01-15T02:43:24.028Z,9.00
2023-01-15T02:45:53.447Z,8.90
2023-01-15T02:48:22.481Z,8.90
2023-01-15T02:50:52.481Z,8.80
2023-01-15T02:53:23.592Z,8.70
2023-01-15T02:55:55.775Z,8.60
2023-01-15T02:58:32.350Z,8.50
2023-01-15T03:01:05.392Z,8.40
2023-01-15T03:03:44.394Z,8.40
2023-01-15T03:06:17.573Z,8.30
2023-01-15T03:08:45.439Z,8.20
2023-01-15T03:11:14.614Z,8.10
2023-01-15T03:13:49.113Z,8.10
2023-01-15T03:16:38.427Z,8.00
2023-01-15T03:19:05.600Z,8.00
2023-01-15T03:21:48.293Z,7.90
2023-01-15T03:24:24.640Z,7.90
2023-01-15T03:26:52.323Z,7.80
2023-01-15T03:29:19.290Z,7.80
2023-01-15T03:31:49.998Z,7.80
2023-01-15T03:34:18.032Z,7.80
2023-01-15T03:36:46.644Z,7.70
2023-01-15T03:39:13.603Z,7.70
2023-01-15T03:42:10.922Z,7.70
2023-01-15T03:44:37.931Z,7.70
2023-01-15T03:47:14.049Z,7.70
2023-01-15T03:49:45.127Z,7.70
2023-01-15T03:52:18.624Z,7.70
2023-01-15T03:54:52.007Z,7.70
2023-01-15T03:57:30.451Z,7.60
2023-01-15T03:59:59.830Z,7.60
2023-01-15T04:02:29.595Z,7.60
2023-01-15T04:04:58.086Z,7.60
2023-01-15T04:07:25.843Z,7.60
2023-01-15T04:09:53.390Z,7.60
2023-01-15T04:12:21.463Z,7.60
2023-01-15T04:14:48.836Z,7.50
2023-01-15T04:17:18.775Z,7.60
2023-01-15T04:19:46.005Z,7.40
2023-01-15T04:22:13.547Z,7.40
2023-01-15T04:24:40.412Z,7.40
2023-01-15T04:27:07.188Z,7.20
2023-01-15T04:29:33.971Z,7.10
2023-01-15T04:32:00.945Z,6.90
2023-01-15T04:34:29.249Z,6.80
2023-01-15T04:36:56.788Z,6.80
2023-01-15T04:39:23.837Z,6.80
2023-01-15T04:42:09.480Z,6.70
2023-01-15T04:44:36.646Z,6.70
2023-01-15T04:47:03.740Z,6.60
2023-01-15T04:49:31.792Z,6.60
2023-01-15T04:51:58.720Z,6.50
2023-01-15T04:54:25.841Z,6.50
2023-01-15T04:56:53.816Z,6.50
2023-01-15T04:59:22.578Z,6.50
2023-01-15T05:02:02.327Z,6.50
2023-01-15T05:04:30.687Z,6.50
2023-01-15T05:06:57.639Z,6.50
2023-01-15T05:09:24.612Z,6.50
2023-01-15T05:11:51.652Z,6.40
2023-01-15T05:14:21.500Z,6.40
2023-01-15T05:16:48.663Z,6.40
2023-01-15T05:19:15.663Z,6.30
2023-01-15T05:21:43.244Z,6.30
2023-01-15T05:24:13.354Z,6.20
2023-01-15T05:26:40.471Z,6.20
2023-01-15T05:29:07.535Z,6.20
2023-01-15T05:31:34.865Z,6.20
2023-01-15T05:34:02.172Z,6.10
2023-01-15T05:36:30.471Z,6.10
2023-01-15T05:38:59.870Z,6.10
2023-01-15T05:41:45.378Z,6.10
2023-01-15T05:44:12.913Z,6.10
2023-01-15T05:46:43.185Z,6.00
2023-01-15T05:49:11.396Z,6.00
2023-01-15T05:51:38.771Z,6.00
2023-01-15T05:54:06.861Z,6.00
2023-01-15T05:56:37.263Z,6.00
2023-01-15T05:59:08.218Z,5.90
2023-01-15T06:01:37.783Z,5.90
2023-01-15T06:04:05.340Z,5.90
2023-01-15T06:06:32.598Z,5.90
2023-01-15T06:08:59.422Z,5.90
2023-01-15T06:11:26.101Z,5.80
2023-01-15T06:13:52.880Z,5.80
2023-01-15T06:16:19.953Z,5.90
2023-01-15T06:18:46.793Z,5.90
2023-01-15T06:21:14.093Z,5.80
2023-01-15T06:23:41.492Z,5.80
2023-01-15T06:26:10.861Z,5.80
2023-01-15T06:31:19.487Z,5.70
2023-01-15T06:33:46.345Z,5.70
2023-01-15T06:36:14.610Z,5.70
2023-01-15T06:38:41.603Z,5.60
2023-01-15T06:41:34.165Z,5.60
2023-01-15T06:44:19.521Z,5.60
2023-01-15T06:47:06.017Z,5.50
2023-01-15T06:49:33.413Z,5.50
2023-01-15T06:52:00.662Z,5.60
2023-01-15T06:54:27.531Z,5.60
2023-01-15T06:56:54.339Z,5.60
2023-01-15T06:59:21.175Z,5.60
2023-01-15T07:01:47.934Z,5.60
2023-01-15T07:04:15.122Z,5.60
2023-01-15T07:06:41.902Z,5.70
2023-01-15T07:09:08.959Z,5.70
2023-01-15T07:11:36.373Z,5.70
2023-01-15T07:14:06.761Z,5.70
2023-01-15T07:16:34.643Z,5.60
2023-01-15T07:19:01.982Z,5.60
2023-01-15T07:21:29.179Z,5.70
2023-01-15T07:23:58.881Z,5.60
2023-01-15T07:26:25.863Z,5.60
2023-01-15T07:28:52.570Z,5.60
2023-01-15T07:31:19.273Z,5.60
2023-01-15T07:33:46.044Z,5.60
2023-01-15T07:36:13.029Z,5.60
2023-01-15T07:38:40.012Z,5.70
2023-01-15T07:41:25.478Z,5.60
2023-01-15T07:44:11.101Z,5.70
2023-01-15T07:46:56.851Z,5.60
2023-01-15T07:49:42.427Z,5.60
2023-01-15T07:52:09.231Z,5.70
2023-01-15T07:54:35.853Z,5.60
2023-01-15T07:57:02.710Z,5.60
2023-01-15T07:59:30.298Z,5.60
2023-01-15T08:01:57.224Z,5.60
2023-01-15T08:04:24.206Z,5.70
2023-01-15T08:06:51.043Z,5.60
2023-01-15T08:09:17.754Z,5.70
2023-01-15T08:12:03.304Z,5.60
2023-01-15T08:14:49.034Z,5.70
2023-01-15T08:17:15.729Z,5.70
2023-01-15T08:19:42.424Z,5.70
2023-01-15T08:22:10.583Z,5.60
2023-01-15T08:24:37.769Z,5.60
2023-01-15T08:27:04.752Z,5.60
2023-01-15T08:29:31.935Z,5.50
2023-01-15T08:31:58.737Z,5.50
2023-01-15T08:34:25.595Z,5.60
2023-01-15T08:36:57.438Z,5.60
2023-01-15T08:39:24.235Z,5.60
2023-01-15T08:41:51.028Z,5.70
2023-01-15T08:44:18.146Z,5.60
2023-01-15T08:46:45.164Z,5.60
2023-01-15T08:49:11.889Z,5.60
2023-01-15T08:51:38.586Z,5.60
2023-01-15T08:54:05.684Z,5.60
2023-01-15T08:56:32.388Z,5.60
2023-01-15T08:58:59.110Z,5.60
2023-01-15T09:01:25.967Z,5.60
2023-01-15T09:03:52.684Z,5.70
2023-01-15T09:06:19.421Z,5.70
2023-01-15T09:08:46.143Z,5.70
2023-01-15T09:11:13.732Z,5.80
2023-01-15T09:13:41.486Z,5.70
2023-01-15T09:16:10.077Z,5.80
2023-01-15T09:18:39.026Z,5.80
2023-01-15T09:21:06.474Z,5.80
2023-01-15T09:23:33.765Z,5.90
2023-01-15T09:26:02.333Z,5.90
2023-01-15T09:28:29.459Z,5.80
2023-01-15T09:30:56.332Z,6.00
2023-01-15T09:33:23.181Z,6.00
2023-01-15T09:35:50.086Z,6.10
2023-01-15T09:38:18.300Z,6.10
2023-01-15T09:40:52.439Z,6.10
2023-01-15T09:43:50.207Z,6.20
2023-01-15T09:46:21.635Z,6.20
2023-01-15T09:49:01.824Z,6.30
2023-01-15T09:51:36.979Z,6.30
2023-01-15T09:54:05.358Z,6.30
2023-01-15T09:56:34.817Z,6.30
2023-01-15T09:59:04.566Z,6.30
2023-01-15T10:01:33.304Z,6.20
2023-01-15T10:04:04.957Z,6.30
2023-01-15T10:07:04.400Z,6.20
2023-01-15T10:09:35.321Z,6.20
2023-01-15T10:12:33.591Z,6.30
2023-01-15T10:15:23.551Z,6.30
2023-01-15T10:17:53.670Z,6.30
2023-01-15T10:20:32.641Z,6.30
2023-01-15T10:23:02.469Z,6.40
2023-01-15T10:25:33.754Z,6.30
2023-01-15T10:28:04.691Z,6.40
2023-01-15T10:30:42.063Z,6.30
2023-01-15T10:33:29.419Z,6.40
2023-01-15T10:36:16.330Z,6.30
2023-01-15T10:38:47.047Z,6.30
2023-01-15T10:41:20.864Z,6.30
2023-01-15T10:43:59.801Z,6.20
2023-01-15T10:46:33.542Z,6.20
2023-01-15T10:49:03.902Z,6.20
2023-01-15T10:51:34.286Z,6.20
2023-01-15T10:54:13.974Z,6.20
2023-01-15T10:59:33.721Z,6.20
2023-01-15T11:02:02.150Z,6.20
2023-01-15T11:04:31.361Z,6.20
2023-01-15T11:07:00.210Z,6.20
2023-01-15T11:09:36.170Z,6.10
2023-01-15T11:12:24.247Z,6.10
2023-01-15T11:15:09.691Z,6.10
2023-01-15T11:18:04.705Z,6.10
2023-01-15T11:20:36.101Z,6.10
2023-01-15T11:23:07.738Z,6.10
2023-01-15T11:25:34.711Z,6.00
2023-01-15T11:28:03.525Z,6.10
2023-01-15T11:30:32.314Z,6.10
2023-01-15T11:36:07.046Z,6.10
2023-01-15T11:38:44.326Z,6.10
2023-01-15T11:41:22.541Z,6.20
2023-01-15T11:44:16.555Z,6.20
2023-01-15T11:47:04.647Z,6.30
2023-01-15T11:49:50.236Z,6.40
2023-01-15T11:52:19.370Z,6.60
2023-01-15T11:54:49.160Z,6.80
2023-01-15T11:57:26.434Z,7.40
2023-01-15T11:59:53.160Z,7.70
2023-01-15T12:02:20.315Z,8.50
2023-01-15T12:04:58.501Z,9.10
2023-01-15T12:07:26.863Z,9.70
2023-01-15T12:10:07.067Z,9.60
2023-01-15T12:13:09.464Z,9.40
2023-01-15T12:15:55.466Z,9.10
2023-01-15T12:18:34.270Z,8.70
2023-01-15T12:21:01.176Z,8.40
2023-01-15T12:23:50.923Z,8.10
2023-01-15T12:26:18.102Z,8.00
2023-01-15T12:28:53.852Z,7.80
2023-01-15T12:31:23.918Z,7.60
2023-01-15T12:33:55.946Z,7.30
2023-01-15T12:39:23.442Z,7.40
2023-01-15T12:42:15.938Z,7.50
2023-01-15T12:45:00.952Z,7.50
2023-01-15T12:47:48.463Z,8.10
2023-01-15T12:50:24.795Z,8.40
2023-01-15T12:53:21.570Z,8.50
2023-01-15T12:56:15.247Z,8.10
2023-01-15T12:58:47.700Z,8.00
2023-01-15T13:01:33.324Z,8.10
2023-01-15T13:04:06.010Z,8.30
2023-01-15T13:06:34.087Z,8.50
2023-01-15T13:09:16.149Z,8.60
2023-01-15T13:11:43.262Z,8.40
2023-01-15T13:14:15.302Z,8.30
2023-01-15T13:16:58.085Z,8.00
2023-01-15T13:19:32.739Z,7.80
2023-01-15T13:22:03.682Z,7.80
2023-01-15T13:24:49.234Z,7.60
2023-01-15T13:27:36.215Z,7.50
2023-01-15T13:30:05.882Z,7.50
2023-01-15T13:32:41.916Z,7.40
2023-01-15T13:35:14.163Z,7.50
2023-01-15T13:37:43.445Z,7.50
2023-01-15T13:40:18.287Z,7.50
2023-01-15T13:42:46.541Z,7.60
2023-01-15T13:45:13.129Z,7.60
2023-01-15T13:47:45.441Z,7.50
2023-01-15T13:50:16.577Z,7.60
2023-01-15T13:52:44.101Z,7.50
2023-01-15T13:55:10.882Z,7.50
2023-01-15T13:57:41.466Z,7.50
2023-01-15T14:00:26.143Z,7.50
2023-01-15T14:02:53.750Z,7.50
2023-01-15T14:05:26.577Z,7.50
2023-01-15T14:07:53.374Z,7.50
2023-01-15T14:10:20.454Z,7.50
2023-01-15T14:13:07.836Z,7.50
2023-01-15T14:15:35.882Z,7.60
2023-01-15T14:18:03.437Z,8.90
2023-01-15T14:20:30.582Z,9.60
2023-01-15T14:23:16.110Z,10.20
2023-01-15T14:25:45.910Z,10.00
2023-01-15T14:28:24.562Z,10.30
2023-01-15T14:30:51.207Z,9.60
2023-01-15T14:33:29.480Z,9.30
2023-01-15T14:35:56.264Z,9.00
2023-01-15T14:38:24.676Z,8.60
2023-01-15T14:40:54.426Z,8.30
2023-01-15T14:43:21.677Z,8.10
2023-01-15T14:45:50.039Z,8.00
2023-01-15T14:48:28.942Z,7.80
2023-01-15T14:51:07.606Z,7.80
2023-01-15T14:53:38.515Z,7.70
2023-01-15T14:56:18.211Z,7.70
2023-01-15T14:58:57.194Z,7.70
2023-01-15T15:01:47.731Z,7.70
2023-01-15T15:04:33.166Z,7.80
2023-01-15T15:07:01.652Z,7.80
2023-01-15T15:09:35.078Z,7.90
2023-01-15T15:12:21.419Z,8.00
2023-01-15T15:15:06.952Z,8.00
2023-01-15T15:17:43.952Z,8.00
2023-01-15T15:20:24.654Z,8.00
2023-01-15T15:22:53.451Z,8.10
2023-01-15T15:25:22.517Z,8.00
2023-01-15T15:27:49.274Z,8.10
2023-01-15T15:30:17.165Z,8.00
2023-01-15T15:32:44.599Z,7.90
2023-01-15T15:35:28.075Z,7.80
2023-01-15T15:37:55.484Z,7.60
2023-01-15T15:40:25.503Z,7.60
2023-01-15T15:43:20.141Z,7.50
2023-01-15T15:46:12.468Z,7.50
2023-01-15T15:48:42.164Z,7.50
2023-01-15T15:51:27.670Z,7.40
2023-01-15T15:54:10.040Z,7.30
2023-01-15T15:56:37.568Z,7.30
2023-01-15T15:59:05.228Z,7.30
2023-01-15T16:01:38.989Z,7.30
2023-01-15T16:04:05.884Z,7.10
2023-01-15T16:06:33.340Z,7.10
2023-01-15T16:09:04.502Z,7.00
2023-01-15T16:11:33.066Z,6.90
2023-01-15T16:14:03.754Z,6.90
2023-01-15T16:16:30.995Z,6.90
2023-01-15T16:18:58.814Z,6.90
2023-01-15T16:21:33.544Z,6.90
2023-01-15T16:24:04.554Z,6.90
2023-01-15T16:26:38.941Z,6.80
2023-01-15T16:29:06.884Z,6.80
2023-01-15T16:31:37.645Z,6.80
2023-01-15T16:34:04.925Z,6.80
2023-01-15T16:36:39.376Z,6.80
2023-01-15T16:39:06.990Z,6.70
2023-01-15T16:41:38.676Z,6.70
2023-01-15T16:44:06.347Z,6.60
2023-01-15T16:46:35.005Z,6.70
2023-01-15T16:49:19.381Z,6.70
2023-01-15T16:51:46.328Z,6.60
2023-01-15T16:54:31.271Z,6.60
2023-01-15T16:57:04.998Z,6.50
2023-01-15T16:59:32.070Z,6.50
2023-01-15T17:02:10.259Z,6.50
2023-01-15T17:04:40.209Z,6.40
2023-01-15T17:07:07.527Z,6.50
2023-01-15T17:09:35.494Z,6.50
2023-01-15T17:12:15.917Z,6.50
2023-01-15T17:14:42.793Z,6.40
2023-01-15T17:17:21.720Z,6.40
2023-01-15T17:19:49.156Z,6.40
2023-01-15T17:22:21.151Z,6.40
2023-01-15T17:24:48.901Z,6.30
2023-01-15T17:27:15.844Z,6.30
2023-01-15T17:29:44.046Z,6.30
2023-01-15T17:32:30.405Z,6.30
2023-01-15T17:34:57.281Z,6.20
2023-01-15T17:37:24.034Z,6.20
2023-01-15T17:39:50.685Z,6.20
2023-01-15T17:42:18.593Z,6.20
2023-01-15T17:44:45.690Z,6.20
2023-01-15T17:47:12.512Z,6.10
2023-01-15T17:49:39.309Z,6.10
2023-01-15T17:52:07.033Z,6.10
2023-01-15T17:54:52.675Z,6.00
2023-01-15T17:57:37.985Z,6.00
2023-01-15T18:00:23.865Z,6.00
2023-01-15T18:03:09.585Z,5.90
2023-01-15T18:05:36.287Z,6.00
2023-01-15T18:08:04.588Z,6.00
2023-01-15T18:10:31.366Z,6.10
2023-01-15T18:12:58.059Z,6.10
2023-01-15T18:15:24.851Z,6.10
2023-01-15T18:17:51.694Z,6.10
2023-01-15T18:20:18.451Z,6.10
2023-01-15T18:22:45.256Z,6.20
2023-01-15T18:25:12.300Z,6.10
2023-01-15T18:27:43.171Z,6.10
2023-01-15T18:30:14.595Z,6.10
2023-01-15T18:32:42.307Z,6.00
2023-01-15T18:35:09.511Z,6.00
2023-01-15T18:37:36.393Z,6.00
2023-01-15T18:40:03.469Z,6.00
2023-01-15T18:42:49.036Z,6.10
2023-01-15T18:45:34.531Z,6.20
2023-01-15T18:48:02.448Z,6.10
2023-01-15T18:50:29.311Z,6.20
2023-01-15T18:52:56.046Z,6.20
2023-01-15T18:55:25.608Z,6.30
2023-01-15T18:57:52.794Z,6.30
2023-01-15T19:00:20.672Z,6.30
2023-01-15T19:02:48.159Z,6.30
2023-01-15T19:05:17.080Z,6.30
2023-01-15T19:07:44.718Z,6.40
2023-01-15T19:10:12.234Z,6.40
2023-01-15T19:12:39.640Z,6.40
2023-01-15T19:15:27.800Z,6.40
2023-01-15T19:18:13.049Z,6.40
2023-01-15T19:20:39.738Z,6.40
2023-01-15T19:23:06.840Z,6.40
2023-01-15T19:25:38.333Z,6.40
2023-01-15T19:28:05.587Z,6.40
2023-01-15T19:30:33.152Z,6.50
2023-01-15T19:32:59.916Z,6.50
2023-01-15T19:35:26.705Z,6.50
2023-01-15T19:37:55.222Z,6.50
2023-01-15T19:40:22.805Z,6.50
2023-01-15T19:43:11.770Z,6.50
2023-01-15T19:45:58.810Z,6.50
2023-01-15T19:48:44.113Z,6.50
2023-01-15T19:51:10.806Z,6.60
2023-01-15T19:53:40.004Z,6.60
2023-01-15T19:56:07.422Z,6.60
2023-01-15T19:58:34.479Z,6.50
2023-01-15T20:01:01.334Z,6.50
2023-01-15T20:03:28.322Z,6.50
2023-01-15T20:05:55.626Z,6.40
2023-01-15T20:08:22.903Z,6.50
2023-01-15T20:10:50.436Z,6.50
2023-01-15T20:13:40.459Z,6.50
2023-01-15T20:16:08.271Z,6.40
2023-01-15T20:18:35.015Z,6.40
2023-01-15T20:21:01.697Z,6.40
2023-01-15T20:23:28.519Z,6.40
2023-01-15T20:26:00.197Z,6.30
2023-01-15T20:28:26.822Z,6.40
2023-01-15T20:30:55.943Z,6.30
2023-01-15T20:33:22.700Z,6.20
2023-01-15T20:35:52.732Z,6.20
2023-01-15T20:38:19.626Z,6.20
2023-01-15T20:40:47.569Z,6.20
2023-01-15T20:43:33.139Z,6.20
2023-01-15T20:46:10.713Z,6.10
2023-01-15T20:48:56.249Z,6.20
2023-01-15T20:51:23.072Z,6.10
2023-01-15T20:53:51.547Z,6.00
2023-01-15T20:56:18.867Z,6.10
2023-01-15T20:58:45.770Z,6.10
2023-01-15T21:01:12.697Z,6.00
2023-01-15T21:03:39.959Z,6.00
2023-01-15T21:06:07.252Z,6.10
2023-01-15T21:08:34.027Z,6.00
2023-01-15T21:11:00.792Z,6.10
2023-01-15T21:13:27.443Z,6.10
2023-01-15T21:15:58.676Z,6.10
2023-01-15T21:18:26.557Z,6.00
2023-01-15T21:20:53.270Z,6.00
2023-01-15T21:23:20.344Z,5.90
2023-01-15T21:25:47.064Z,5.80
2023-01-15T21:28:14.181Z,5.80
2023-01-15T21:30:41.324Z,5.80
2023-01-15T21:33:08.955Z,5.80
2023-01-15T21:35:38.091Z,5.80
2023-01-15T21:38:04.758Z,5.80
2023-01-15T21:40:31.421Z,5.90
2023-01-15T21:43:16.800Z,5.90
2023-01-15T21:45:43.619Z,6.00
2023-01-15T21:48:10.427Z,5.90
2023-01-15T21:50:37.735Z,5.90
2023-01-15T21:53:04.356Z,5.90
2023-01-15T21:55:31.064Z,5.90
2023-01-15T21:57:58.186Z,5.90
2023-01-15T22:00:24.893Z,5.80
2023-01-15T22:02:51.733Z,5.80
2023-01-15T22:05:18.451Z,5.80
2023-01-15T22:07:45.120Z,5.80
2023-01-15T22:10:11.842Z,5.90
2023-01-15T22:12:42.800Z,5.90
2023-01-15T22:15:10.277Z,5.90
2023-01-15T22:17:36.916Z,5.90
2023-01-15T22:20:04.098Z,5.90
2023-01-15T22:22:33.984Z,6.00
2023-01-15T22:25:01.081Z,5.90
2023-01-15T22:27:29.567Z,5.90
2023-01-15T22:29:56.256Z,6.00
2023-01-15T22:32:23.029Z,5.90
2023-01-15T22:34:49.761Z,5.80
2023-01-15T22:37:16.473Z,5.80
2023-01-15T22:39:43.294Z,5.80
2023-01-15T22:42:31.164Z,5.80
2023-01-15T22:45:00.028Z,5.70
2023-01-15T22:47:27.805Z,5.70
2023-01-15T22:49:54.447Z,5.70
2023-01-15T22:52:24.919Z,5.60
2023-01-15T22:54:51.577Z,5.50
2023-01-15T22:57:18.416Z,5.60
2023-01-15T22:59:45.478Z,5.60
2023-01-15T23:02:12.493Z,5.50
2023-01-15T23:04:39.331Z,5.40
2023-01-15T23:07:06.164Z,5.40
2023-01-15T23:09:33.211Z,5.40
2023-01-15T23:11:59.947Z,5.60
2023-01-15T23:14:26.907Z,5.60
2023-01-15T23:16:53.668Z,5.60
2023-01-15T23:19:20.548Z,5.50
2023-01-15T23:21:47.260Z,5.60
2023-01-15T23:24:13.992Z,5.60
2023-01-15T23:26:40.983Z,5.50
2023-01-15T23:29:07.695Z,5.50
2023-01-15T23:31:34.488Z,5.60
2023-01-15T23:34:01.219Z,5.40
2023-01-15T23:36:28.118Z,5.40
2023-01-15T23:38:55.104Z,5.50
2023-01-15T23:41:43.046Z,5.50
2023-01-15T23:44:32.866Z,5.40
2023-01-15T23:46:59.560Z,5.40
2023-01-15T23:49:26.255Z,5.40
2023-01-15T23:51:52.986Z,5.40
2023-01-15T23:54:19.628Z,5.50
2023-01-15T23:56:46.530Z,5.60
2023-01-15T23:59:13.291Z,5.60
